Time;durP1;ratioP1;P1;durP2;ratioP2;P2;SDS_P1;SDS_P2;PMS_P1;PMS_P2;Temp;Humidity;BMP_temperature;BMP_pressure;BME280_temperature;BME280_humidity;BME280_pressure;Samples;Min_cycle;Max_cycle;Signal;HPM_P1;HPM_P2
2022/01/26 00:00:57;;;;;;;42.23;17.83;;;;;;;-0.34;100.00;97653.28;4954796;28;105112;-62
2022/01/26 00:06:14;;;;;;;30.60;17.43;;;;;;;-0.30;100.00;97649.41;5028568;28;105157;-61
2022/01/26 00:08:42;;;;;;;37.10;17.63;;;;;;;-0.50;100.00;97647.94;5030674;28;101820;-60
2022/01/26 00:11:11;;;;;;;35.13;16.33;;;;;;;-0.58;100.00;97640.03;5030395;28;102649;-60
2022/01/26 00:13:38;;;;;;;50.27;17.40;;;;;;;-0.52;100.00;97643.81;5028556;28;105438;-61
2022/01/26 00:16:13;;;;;;;41.83;18.30;;;;;;;-0.55;100.00;97644.94;5030467;28;101833;-60
2022/01/26 00:19:13;;;;;;;34.53;17.27;;;;;;;-0.62;100.00;97643.13;5029141;28;103658;-60
2022/01/26 00:21:47;;;;;;;38.03;16.10;;;;;;;-0.87;100.00;97649.91;4988388;28;105181;-60
2022/01/26 00:27:22;;;;;;;23.33;15.87;;;;;;;-0.65;100.00;97656.47;4988301;28;105298;-60
2022/01/26 00:30:00;;;;;;;44.33;18.03;;;;;;;-0.68;100.00;97649.75;4988809;28;101808;-60
2022/01/26 00:41:04;;;;;;;23.77;17.03;;;;;;;-0.39;100.00;97639.03;4988478;28;105686;-60
2022/01/26 00:43:31;;;;;;;34.47;17.60;;;;;;;-0.34;100.00;97631.56;4989481;28;103214;-60
2022/01/26 00:45:59;;;;;;;58.63;19.77;;;;;;;-0.29;100.00;97629.31;4988511;28;101997;-60
2022/01/26 00:49:00;;;;;;;120.63;19.23;;;;;;;-0.35;100.00;97620.28;4991386;28;105523;-60
2022/01/26 00:51:27;;;;;;;29.30;17.03;;;;;;;-0.35;100.00;97625.50;4988319;28;101858;-60
2022/01/26 00:54:01;;;;;;;36.00;18.73;;;;;;;-0.28;100.00;97627.38;4989830;28;102931;-61
2022/01/26 00:56:28;;;;;;;25.23;16.77;;;;;;;-0.36;100.00;97621.25;4984565;28;106671;-61
2022/01/26 00:58:55;;;;;;;28.30;18.03;;;;;;;-0.21;100.00;97627.59;4968322;28;101845;-61
2022/01/26 01:01:22;;;;;;;32.27;18.80;;;;;;;-0.12;100.00;97624.84;4968561;28;105073;-61
2022/01/26 01:03:49;;;;;;;26.53;19.20;;;;;;;-0.28;100.00;97625.72;4969338;28;103287;-61
2022/01/26 01:06:23;;;;;;;31.13;20.00;;;;;;;-0.15;100.00;97626.97;4968314;28;102105;-61
2022/01/26 01:09:01;;;;;;;64.03;19.43;;;;;;;-0.15;100.00;97626.97;4971545;28;104010;-61
2022/01/26 01:14:50;;;;;;;32.50;19.70;;;;;;;-0.12;100.00;97621.41;4968136;28;105556;-60
2022/01/26 01:17:23;;;;;;;34.63;19.50;;;;;;;-0.12;100.00;97616.19;4967785;28;105596;-61
2022/01/26 01:20:08;;;;;;;26.87;18.33;;;;;;;0.04;100.00;97626.72;5012307;27;101814;-60
2022/01/26 01:22:49;;;;;;;32.63;20.03;;;;;;;0.13;100.00;97628.44;5007922;28;106491;-60
2022/01/26 01:28:27;;;;;;;31.37;19.77;;;;;;;0.04;100.00;97626.72;5018009;28;101876;-61
2022/01/26 01:30:58;;;;;;;34.73;19.33;;;;;;;0.07;100.00;97622.00;5027968;28;105333;-60
2022/01/26 01:33:31;;;;;;;30.93;20.83;;;;;;;0.17;100.00;97627.16;5030964;28;105435;-60
2022/01/26 01:36:00;;;;;;;31.83;20.53;;;;;;;0.28;100.00;97629.50;5028878;27;105726;-61
2022/01/26 01:39:00;;;;;;;31.60;19.97;;;;;;;0.36;100.00;97632.13;5030932;28;105444;-61
2022/01/26 01:41:29;;;;;;;41.53;21.47;;;;;;;0.30;100.00;97620.50;5031416;28;101954;-61
2022/01/26 01:43:55;;;;;;;31.07;20.27;;;;;;;0.35;100.00;97614.81;5031361;28;105328;-60
2022/01/26 01:46:23;;;;;;;34.37;21.10;;;;;;;0.49;100.00;97611.56;5030774;28;104361;-61
2022/01/26 01:48:51;;;;;;;31.47;19.93;;;;;;;0.62;100.00;97617.19;5031426;28;102000;-61
2022/01/26 01:51:19;;;;;;;32.40;21.33;;;;;;;0.65;100.00;97611.63;5031343;27;102409;-61
2022/01/26 01:53:46;;;;;;;36.87;20.70;;;;;;;0.60;100.00;97616.53;5030668;28;105292;-61
2022/01/26 01:56:18;;;;;;;34.10;20.67;;;;;;;0.34;100.00;97611.34;5034718;28;102335;-61
2022/01/26 02:02:08;;;;;;;31.17;19.77;;;;;;;0.29;100.00;97603.16;5011016;28;101848;-61
2022/01/26 02:04:35;;;;;;;29.73;18.90;;;;;;;0.26;100.00;97607.88;5011002;28;105604;-61
2022/01/26 02:07:03;;;;;;;31.43;19.33;;;;;;;0.20;100.00;97596.25;5010292;28;105460;-61
2022/01/26 02:13:17;;;;;;;28.53;18.30;;;;;;;0.18;100.00;97597.41;5010862;28;105287;-61
2022/01/26 02:15:50;;;;;;;36.23;18.53;;;;;;;0.15;100.00;97597.69;5029356;28;103128;-61
2022/01/26 02:18:43;;;;;;;28.90;19.50;;;;;;;0.22;100.00;97593.50;5030979;28;101837;-61
2022/01/26 02:50:04;;;;;;;31.93;18.73;;;;;;;0.12;100.00;97593.59;5031667;27;102739;-61
2022/01/26 02:52:54;;;;;;;28.43;18.30;;;;;;;0.05;100.00;97578.69;5029876;28;105883;-61
2022/01/26 02:55:36;;;;;;;28.30;18.73;;;;;;;-0.11;100.00;97587.28;5030171;28;101780;-61
2022/01/26 03:03:53;;;;;;;30.30;19.53;;;;;;;-0.13;100.00;97576.16;5127570;27;105554;-61
2022/01/26 03:06:28;;;;;;;33.70;19.70;;;;;;;-0.17;100.00;97570.59;5131327;27;101801;-61
2022/01/26 03:09:05;;;;;;;29.67;19.43;;;;;;;-0.11;100.00;97568.16;5131288;27;105151;-61
2022/01/26 03:11:42;;;;;;;29.13;19.73;;;;;;;-0.19;100.00;97568.13;5130781;27;105790;-61
2022/01/26 03:14:17;;;;;;;29.87;20.70;;;;;;;-0.28;100.00;97569.03;5150300;27;101714;-61
2022/01/26 03:16:52;;;;;;;27.83;19.73;;;;;;;-0.17;100.00;97565.34;5131173;27;105243;-61
2022/01/26 03:19:47;;;;;;;30.63;20.43;;;;;;;-0.09;100.00;97564.41;5130574;27;104180;-61
2022/01/26 03:30:46;;;;;;;28.27;19.83;;;;;;;-0.11;100.00;97550.69;5128862;27;102477;-61
2022/01/26 03:33:25;;;;;;;26.80;18.70;;;;;;;-0.16;100.00;97567.81;5109643;27;105592;-61
2022/01/26 03:35:55;;;;;;;25.97;19.20;;;;;;;-0.27;100.00;97561.03;5126946;27;101827;-61
2022/01/26 03:38:50;;;;;;;25.90;18.97;;;;;;;-0.35;100.00;97565.41;5130899;27;105028;-61
2022/01/26 03:41:32;;;;;;;26.13;19.13;;;;;;;-0.39;100.00;97561.44;5130096;27;104222;-61
2022/01/26 03:44:00;;;;;;;25.90;18.67;;;;;;;-0.37;100.00;97565.56;5130127;27;102139;-61
2022/01/26 03:46:27;;;;;;;23.97;17.53;;;;;;;-0.47;100.00;97567.44;5133561;27;105189;-61
2022/01/26 03:49:02;;;;;;;26.40;18.73;;;;;;;-0.49;100.00;97562.53;5130856;27;101766;-61
2022/01/26 03:51:29;;;;;;;28.20;19.40;;;;;;;-0.56;100.00;97562.31;5130807;27;104900;-61
2022/01/26 03:53:56;;;;;;;27.13;18.40;;;;;;;-0.57;100.00;97565.91;5129993;27;105728;-61
2022/01/26 03:56:23;;;;;;;24.53;18.07;;;;;;;-0.52;100.00;97566.28;5128804;27;101935;-61
2022/01/26 03:59:16;;;;;;;26.40;18.80;;;;;;;-0.43;100.00;97575.81;5114566;27;105185;-61
2022/01/26 04:01:43;;;;;;;27.40;19.03;;;;;;;-0.56;100.00;97574.59;5105783;27;105616;-61
2022/01/26 04:04:12;;;;;;;25.90;18.07;;;;;;;-0.50;100.00;97569.56;5104081;27;102008;-61
2022/01/26 04:06:39;;;;;;;22.83;17.13;;;;;;;-0.51;100.00;97575.75;5085318;27;105215;-61
2022/01/26 04:09:19;;;;;;;25.07;18.00;;;;;;;-0.51;100.00;97572.34;5114968;27;105742;-61
2022/01/26 04:12:05;;;;;;;28.27;18.87;;;;;;;-0.52;100.00;97575.91;5097259;27;102499;-61
2022/01/26 04:14:34;;;;;;;25.13;18.50;;;;;;;-0.50;100.00;97574.78;5091071;27;105605;-61
2022/01/26 04:17:01;;;;;;;24.87;18.53;;;;;;;-0.53;100.00;97576.88;5075656;27;101820;-61
2022/01/26 04:19:59;;;;;;;27.43;18.63;;;;;;;-0.31;100.00;97569.34;5071331;27;105185;-61
2022/01/26 04:22:33;;;;;;;25.83;18.00;;;;;;;-0.50;100.00;97580.00;5071043;27;104195;-61
2022/01/26 04:25:00;;;;;;;28.93;19.20;;;;;;;-0.39;100.00;97581.56;5071273;27;101824;-61
2022/01/26 04:27:50;;;;;;;26.63;18.77;;;;;;;-0.50;100.00;97582.59;5071327;27;105451;-61
2022/01/26 04:30:17;;;;;;;25.63;18.60;;;;;;;-0.62;100.00;97581.22;5070429;27;105668;-61
2022/01/26 04:32:45;;;;;;;27.50;18.87;;;;;;;-0.61;100.00;97569.81;5074599;27;101970;-61
2022/01/26 04:35:14;;;;;;;28.20;19.90;;;;;;;-0.58;100.00;97585.19;5070693;27;105077;-61
2022/01/26 04:38:34;;;;;;;40.40;20.70;;;;;;;-0.72;100.00;97585.72;5072436;27;101799;-61
2022/01/26 04:41:37;;;;;;;26.60;18.30;;;;;;;-0.55;100.00;97584.84;5070798;27;105404;-61
2022/01/26 04:44:10;;;;;;;26.23;18.50;;;;;;;-0.63;100.00;97589.22;5071956;27;103251;-61
2022/01/26 04:46:37;;;;;;;31.17;19.57;;;;;;;-0.77;100.00;97587.97;5071065;27;101807;-61
2022/01/26 04:49:07;;;;;;;28.27;19.30;;;;;;;-0.70;100.00;97594.25;5071068;27;105455;-61
2022/01/26 04:51:36;;;;;;;30.27;20.50;;;;;;;-0.82;100.00;97584.97;5070167;27;105548;-61
2022/01/26 04:54:03;;;;;;;33.37;20.70;;;;;;;-0.84;100.00;97579.09;5070888;27;101880;-61
2022/01/26 04:56:30;;;;;;;27.47;19.27;;;;;;;-0.85;100.00;97582.69;5075172;27;102578;-61
2022/01/26 04:59:01;;;;;;;35.87;20.83;;;;;;;-0.92;100.00;97581.66;5070588;27;101949;-61
2022/01/26 05:01:29;;;;;;;33.97;21.97;;;;;;;-0.84;100.00;97579.09;5070696;27;105600;-61
2022/01/26 05:03:56;;;;;;;35.47;19.33;;;;;;;-0.86;100.00;97578.44;5070004;27;105726;-61
2022/01/26 05:06:23;;;;;;;43.90;20.33;;;;;;;-0.98;100.00;97577.03;5070674;27;101947;-61
2022/01/26 05:09:00;;;;;;;29.07;18.77;;;;;;;-0.96;100.00;97582.09;5070531;27;104066;-61
2022/01/26 05:11:36;;;;;;;30.40;19.57;;;;;;;-0.82;100.00;97577.13;5070113;27;105523;-61
2022/01/26 05:14:03;;;;;;;26.70;19.07;;;;;;;-0.91;100.00;97585.91;5070467;27;101773;-61
2022/01/26 05:16:30;;;;;;;28.90;19.00;;;;;;;-1.01;100.00;97587.75;5070535;27;105472;-61
2022/01/26 05:18:58;;;;;;;33.90;20.07;;;;;;;-0.97;100.00;97580.44;5073450;27;102012;-61
2022/01/26 05:21:26;;;;;;;26.50;18.73;;;;;;;-0.95;100.00;97584.56;5090888;27;105734;-61
2022/01/26 05:23:54;;;;;;;30.17;20.07;;;;;;;-0.84;100.00;97586.94;5089232;27;105145;-61
2022/01/26 05:26:23;;;;;;;27.53;19.07;;;;;;;-0.99;100.00;97577.97;5090975;27;101881;-61
2022/01/26 05:32:13;;;;;;;28.43;18.83;;;;;;;-1.03;100.00;97594.94;5090489;27;105526;-61
2022/01/26 05:34:40;;;;;;;29.63;18.73;;;;;;;-1.10;100.00;97585.25;5092081;27;101783;-61
2022/01/26 05:37:07;;;;;;;28.43;18.67;;;;;;;-1.03;100.00;97589.72;5090613;27;105149;-61
2022/01/26 05:39:39;;;;;;;35.50;20.43;;;;;;;-1.13;100.00;97591.56;5093549;27;105798;-61
2022/01/26 05:42:08;;;;;;;31.60;19.73;;;;;;;-1.17;100.00;97595.44;5090546;27;105181;-61
2022/01/26 05:44:36;;;;;;;32.67;19.57;;;;;;;-1.30;100.00;97596.78;5089775;27;105730;-61
2022/01/26 05:47:06;;;;;;;32.10;19.60;;;;;;;-1.36;100.00;97589.53;5079278;27;101963;-61
2022/01/26 05:49:47;;;;;;;34.77;20.03;;;;;;;-1.27;100.00;97594.69;5069724;27;105120;-61
2022/01/26 05:52:14;;;;;;;120.20;23.20;;;;;;;-1.38;100.00;97591.50;5081941;27;105478;-61
2022/01/26 05:54:41;;;;;;;37.70;20.07;;;;;;;-1.27;100.00;97599.09;5090492;27;101850;-61
2022/01/26 05:57:10;;;;;;;38.83;20.80;;;;;;;-1.22;100.00;97587.22;5079059;27;104242;-62
2022/01/26 06:00:13;;;;;;;33.03;19.90;;;;;;;-1.33;100.00;97590.06;5071098;27;105816;-62
2022/01/26 06:02:46;;;;;;;32.93;19.70;;;;;;;-1.17;100.00;97589.38;5074885;27;102177;-61
2022/01/26 06:05:14;;;;;;;45.27;22.13;;;;;;;-1.28;100.00;97592.22;5069066;27;105805;-61
2022/01/26 06:11:04;;;;;;;41.30;21.87;;;;;;;-1.41;100.00;97602.19;5073743;27;104243;-61
2022/01/26 06:13:33;;;;;;;35.23;20.73;;;;;;;-1.34;100.00;97598.88;5089467;27;105633;-62
2022/01/26 06:16:00;;;;;;;65.10;22.53;;;;;;;-1.33;100.00;97597.88;5090163;27;101717;-61
2022/01/26 06:18:35;;;;;;;53.70;21.40;;;;;;;-1.36;100.00;97598.19;5090207;27;105246;-61
2022/01/26 06:21:02;;;;;;;96.93;23.60;;;;;;;-1.32;100.00;97594.31;5089363;27;105881;-61
2022/01/26 06:23:29;;;;;;;40.27;21.47;;;;;;;-1.31;100.00;97601.16;5089895;27;102035;-61
2022/01/26 06:25:58;;;;;;;63.40;22.60;;;;;;;-1.48;100.00;97595.94;5092791;27;104120;-61
2022/01/26 06:28:32;;;;;;;34.33;20.10;;;;;;;-1.39;100.00;97595.03;5090993;27;101834;-61
2022/01/26 06:31:00;;;;;;;36.67;20.57;;;;;;;-1.51;100.00;97584.00;5089810;27;106662;-62
2022/01/26 06:33:27;;;;;;;38.57;20.00;;;;;;;-1.65;100.00;97583.69;5088617;27;105947;-62
2022/01/26 06:35:57;;;;;;;72.53;22.03;;;;;;;-1.61;100.00;97582.41;5089970;27;102198;-62
2022/01/26 06:38:27;;;;;;;56.47;20.07;;;;;;;-1.57;100.00;97586.38;5089587;27;105537;-61
2022/01/26 06:40:55;;;;;;;36.33;19.53;;;;;;;-1.72;100.00;97590.44;5089268;27;106119;-61
2022/01/26 06:43:24;;;;;;;37.40;20.33;;;;;;;-1.71;100.00;97590.28;5089621;27;102065;-62
2022/01/26 06:45:58;;;;;;;35.33;19.90;;;;;;;-1.69;100.00;97595.38;5082923;27;105402;-61
2022/01/26 06:48:57;;;;;;;61.77;20.47;;;;;;;-1.59;100.00;97590.94;5071891;27;104316;-61
2022/01/26 06:51:25;;;;;;;62.23;20.20;;;;;;;-1.74;100.00;97600.19;5069081;27;105356;-61
2022/01/26 06:53:52;;;;;;;48.13;19.70;;;;;;;-1.74;100.00;97593.22;5068531;27;105563;-61
2022/01/26 06:56:19;;;;;;;55.73;18.83;;;;;;;-1.66;100.00;97585.47;5068721;27;101748;-61
2022/01/26 06:59:26;;;;;;;34.57;20.67;;;;;;;-1.51;100.00;97583.19;5068393;27;105093;-61
2022/01/26 07:01:54;;;;;;;37.73;20.27;;;;;;;-1.48;100.00;97580.28;5081505;27;105424;-61
2022/01/26 07:04:21;;;;;;;44.57;20.00;;;;;;;-1.67;100.00;97586.44;5090742;27;101790;-61
2022/01/26 07:06:48;;;;;;;86.67;19.60;;;;;;;-1.77;100.00;97595.25;5107399;27;105239;-61
2022/01/26 07:09:25;;;;;;;60.40;20.30;;;;;;;-1.67;100.00;97594.25;5109574;27;104372;-62
2022/01/26 07:12:08;;;;;;;44.33;19.37;;;;;;;-1.61;100.00;97587.63;5096519;27;101737;-62
2022/01/26 07:23:23;;;;;;;37.20;20.37;;;;;;;-1.60;100.00;97597.91;5072281;27;105695;-63
2022/01/26 07:25:51;;;;;;;43.10;19.87;;;;;;;-1.71;100.00;97605.94;5088967;27;101887;-62
2022/01/26 07:28:34;;;;;;;63.40;21.43;;;;;;;-1.85;100.00;97598.63;5088662;27;103945;-62
2022/01/26 07:31:02;;;;;;;56.23;19.73;;;;;;;-1.80;100.00;97601.56;5090744;27;103101;-63
2022/01/26 07:33:31;;;;;;;35.07;17.90;;;;;;;-1.83;100.00;97607.09;5112947;27;102013;-63
2022/01/26 07:35:58;;;;;;;144.97;23.07;;;;;;;-1.74;100.00;97606.25;5108895;27;105643;-63
2022/01/26 07:38:51;;;;;;;50.47;19.13;;;;;;;-1.78;100.00;97607.50;5109350;27;102234;-63
2022/01/26 07:41:37;;;;;;;70.70;19.40;;;;;;;-1.70;100.00;97602.34;5109564;27;105372;-62
2022/01/26 07:44:05;;;;;;;48.73;19.70;;;;;;;-1.65;100.00;97607.16;5091441;27;104322;-62
2022/01/26 07:46:33;;;;;;;37.73;19.60;;;;;;;-1.54;100.00;97607.75;5093008;27;102071;-62
2022/01/26 07:49:07;;;;;;;41.37;18.43;;;;;;;-1.67;100.00;97611.69;5113106;27;104813;-62
2022/01/26 07:51:35;;;;;;;56.10;19.07;;;;;;;-1.57;100.00;97607.25;5098294;27;105856;-62
2022/01/26 07:54:02;;;;;;;33.93;18.33;;;;;;;-1.58;100.00;97608.22;5092402;27;101854;-62
2022/01/26 07:56:29;;;;;;;32.97;18.57;;;;;;;-1.33;100.00;97608.31;5095294;27;105182;-62
2022/01/26 07:59:24;;;;;;;33.90;19.77;;;;;;;-1.33;100.00;97603.09;5091495;27;101864;-62
2022/01/26 08:01:52;;;;;;;35.10;19.43;;;;;;;-1.29;100.00;97606.22;5091562;27;104963;-63
2022/01/26 08:04:21;;;;;;;37.90;19.60;;;;;;;-1.17;100.00;97602.44;5091737;27;104765;-63
2022/01/26 08:06:50;;;;;;;29.20;18.73;;;;;;;-1.23;100.00;97601.25;5092904;27;102170;-63
2022/01/26 08:09:24;;;;;;;29.10;17.57;;;;;;;-1.07;100.00;97587.53;5091926;27;105294;-63
2022/01/26 08:11:54;;;;;;;29.83;17.90;;;;;;;-0.82;100.00;97592.00;5091329;27;104593;-61
2022/01/26 08:14:21;;;;;;;31.77;19.27;;;;;;;-0.72;100.00;97593.53;5091485;27;101890;-61
2022/01/26 08:16:49;;;;;;;28.97;18.33;;;;;;;-0.95;100.00;97589.78;5091904;27;103902;-63
2022/01/26 08:19:18;;;;;;;26.40;17.13;;;;;;;-0.72;100.00;97593.53;5104501;27;105292;-63
2022/01/26 08:21:47;;;;;;;28.90;18.53;;;;;;;-0.58;100.00;97590.41;5097445;27;105158;-64
2022/01/26 08:24:15;;;;;;;27.57;17.27;;;;;;;-0.57;100.00;97584.19;5113466;27;102526;-68
2022/01/26 08:26:46;;;;;;;28.40;17.90;;;;;;;-0.57;100.00;97584.19;5112772;27;102115;-67
2022/01/26 08:29:26;;;;;;;28.80;17.90;;;;;;;-0.50;100.00;97579.19;5112753;27;105465;-63
2022/01/26 08:31:54;;;;;;;29.70;18.43;;;;;;;-0.37;100.00;97576.00;5098053;27;105874;-62
2022/01/26 08:34:22;;;;;;;27.00;17.87;;;;;;;-0.18;100.00;97568.94;5113893;27;101836;-62
2022/01/26 08:36:51;;;;;;;25.97;16.93;;;;;;;0.10;100.00;97572.03;5112577;27;105943;-62
2022/01/26 08:39:24;;;;;;;25.47;15.93;;;;;;;0.25;100.00;97574.84;5111945;27;104523;-62
2022/01/26 08:42:10;;;;;;;28.13;18.43;;;;;;;0.30;100.00;97569.97;5097230;27;101805;-62
2022/01/26 08:44:38;;;;;;;25.57;16.03;;;;;;;0.18;100.00;97566.81;5092537;27;102741;-63
2022/01/26 08:47:06;;;;;;;22.70;15.67;;;;;;;-0.01;100.00;97561.84;5091542;27;101957;-67
2022/01/26 08:49:39;;;;;;;22.67;16.27;;;;;;;-0.26;100.00;97557.44;5091507;27;105507;-67
2022/01/26 08:52:09;;;;;;;22.97;16.10;;;;;;;-0.22;100.00;97560.56;5094586;27;105561;-62
2022/01/26 08:54:37;;;;;;;25.20;15.93;;;;;;;-0.34;100.00;97564.44;5106651;27;102020;-64
2022/01/26 08:57:04;;;;;;;22.10;15.33;;;;;;;-0.15;100.00;97559.00;5111749;27;105033;-64
2022/01/26 08:59:48;;;;;;;21.03;14.20;;;;;;;-0.21;100.00;97557.81;5109148;27;102794;-63
2022/01/26 09:02:15;;;;;;;20.33;14.47;;;;;;;-0.23;100.00;97555.53;5109475;27;101706;-64
2022/01/26 09:04:43;;;;;;;20.00;14.47;;;;;;;-0.13;100.00;97557.03;5116313;27;102575;-64
2022/01/26 09:07:15;;;;;;;20.10;13.93;;;;;;;0.02;100.00;97552.88;5112977;27;101826;-64
2022/01/26 09:09:44;;;;;;;20.03;13.77;;;;;;;0.29;100.00;97553.44;5095766;27;105177;-65
2022/01/26 09:12:20;;;;;;;19.13;13.57;;;;;;;0.48;100.00;97550.59;5114336;27;105567;-64
2022/01/26 09:14:48;;;;;;;17.70;13.03;;;;;;;0.38;100.00;97547.28;5115324;27;101988;-66
2022/01/26 09:17:16;;;;;;;18.57;13.27;;;;;;;0.62;100.00;97539.47;5095892;27;105843;-65
2022/01/26 09:19:46;;;;;;;16.43;12.40;;;;;;;0.57;100.00;97560.09;5093927;27;106329;-63
2022/01/26 09:22:16;;;;;;;16.57;12.57;;;;;;;0.96;100.00;97552.47;5093992;27;101943;-63
2022/01/26 09:24:45;;;;;;;15.33;11.93;;;;;;;1.29;100.00;97548.84;5094454;27;105418;-64
2022/01/26 09:27:17;;;;;;;14.27;11.40;;;;;;;1.27;100.00;97556.88;5117888;27;104559;-65
2022/01/26 09:29:46;;;;;;;15.93;11.93;;;;;;;1.42;100.00;97564.91;5114901;27;105347;-67
2022/01/26 09:32:14;;;;;;;16.63;12.30;;;;;;;1.57;100.00;97568.47;5114502;27;105689;-63
2022/01/26 09:34:43;;;;;;;17.83;12.23;;;;;;;1.52;100.00;97566.38;5114705;27;102170;-62
2022/01/26 09:37:13;;;;;;;15.80;12.60;;;;;;;1.31;100.00;97573.13;5114682;27;106003;-64
2022/01/26 09:39:50;;;;;;;19.07;13.50;;;;;;;1.44;100.00;97576.88;5114248;27;105659;-66
2022/01/26 09:42:19;;;;;;;16.63;12.97;;;;;;;1.60;100.00;97579.44;5109088;27;102309;-64
2022/01/26 09:44:46;;;;;;;16.60;11.53;;;;;;;1.75;100.00;97583.03;5110258;27;105839;-64
2022/01/26 09:47:13;;;;;;;15.80;13.00;;;;;;;2.03;100.00;97579.03;5117735;27;105404;-61
2022/01/26 09:53:03;;;;;;;15.93;11.57;;;;;;;2.08;100.00;97579.34;5092864;27;105586;-67
2022/01/26 09:55:32;;;;;;;17.73;12.13;;;;;;;2.49;100.00;97574.78;5093744;27;101901;-66
2022/01/26 09:58:02;;;;;;;14.40;11.47;;;;;;;2.69;100.00;97568.13;5103058;27;105334;-66
2022/01/26 10:00:31;;;;;;;15.67;11.70;;;;;;;2.96;100.00;97563.16;5113380;27;105784;-66
2022/01/26 10:03:01;;;;;;;14.20;11.50;;;;;;;3.05;100.00;97558.66;5124146;27;101708;-67
2022/01/26 10:05:41;;;;;;;14.30;10.90;;;;;;;3.06;100.00;97555.06;5094402;27;105277;-65
2022/01/26 10:08:54;;;;;;;17.20;12.07;;;;;;;3.49;100.00;97555.19;5113721;27;105832;-65
2022/01/26 10:17:50;;;;;;;16.50;12.90;;;;;;;3.79;100.00;97550.81;5133148;27;101749;-64
2022/01/26 10:20:19;;;;;;;17.43;13.77;;;;;;;3.99;100.00;97557.19;5105022;27;105528;-64
2022/01/26 10:22:46;;;;;;;18.50;13.70;;;;;;;4.12;100.00;97552.09;5092841;27;105302;-64
2022/01/26 10:25:15;;;;;;;18.00;13.83;;;;;;;3.84;100.00;97551.91;5093091;27;101884;-64
2022/01/26 10:27:51;;;;;;;16.50;13.50;;;;;;;4.00;100.00;97553.56;5092999;27;105554;-65
2022/01/26 10:30:22;;;;;;;16.90;13.43;;;;;;;3.94;100.00;97557.72;5093647;27;105472;-63
2022/01/26 10:32:49;;;;;;;16.30;13.53;;;;;;;4.23;100.00;97555.09;5093789;27;103793;-64
2022/01/26 10:35:17;;;;;;;16.13;12.70;;;;;;;4.22;100.00;97555.28;5114750;27;104149;-64
2022/01/26 10:41:20;;;;;;;16.17;12.73;;;;;;;4.05;100.00;97544.09;5094795;27;103702;-73
2022/01/26 10:43:51;;;;;;;16.40;12.90;;;;;;;4.04;100.00;97534.56;5111562;27;103270;-64
2022/01/26 10:46:27;;;;;;;18.63;14.00;;;;;;;4.33;100.00;97536.38;5092847;27;101938;-65
2022/01/26 10:49:07;;;;;;;17.90;13.83;;;;;;;4.15;100.00;97530.69;5093020;27;105162;-65
2022/01/26 10:51:52;;;;;;;16.27;13.67;;;;;;;4.28;100.00;97523.78;5092438;27;105085;-65
2022/01/26 10:54:23;;;;;;;17.67;13.23;;;;;;;4.73;100.00;97517.41;5092975;27;102016;-65
2022/01/26 10:56:52;;;;;;;15.73;12.67;;;;;;;4.37;100.00;97516.59;5092930;27;105244;-65
2022/01/26 10:59:59;;;;;;;16.50;13.17;;;;;;;4.77;100.00;97505.50;5095196;27;105423;-65
2022/01/26 11:02:31;;;;;;;15.00;11.77;;;;;;;4.37;100.00;97512.13;5111348;27;102414;-65
2022/01/26 11:04:58;;;;;;;17.03;12.97;;;;;;;4.69;100.00;97516.16;5092527;27;104289;-65
2022/01/26 11:07:31;;;;;;;14.27;12.20;;;;;;;4.93;100.00;97518.44;5092840;27;101939;-65
2022/01/26 11:10:03;;;;;;;16.53;13.17;;;;;;;4.91;100.00;97515.19;5092785;27;104186;-65
2022/01/26 11:13:15;;;;;;;14.57;12.47;;;;;;;4.98;100.00;97511.59;5092182;27;104973;-65
2022/01/26 11:15:43;;;;;;;12.57;10.37;;;;;;;4.92;100.00;97511.53;5092630;27;101933;-65
2022/01/26 11:18:47;;;;;;;12.80;10.00;;;;;;;4.95;100.00;97490.88;5093002;27;104084;-65
2022/01/26 11:21:28;;;;;;;11.70;9.43;;;;;;;4.93;100.00;97482.34;5093256;27;105106;-65
2022/01/26 11:24:12;;;;;;;11.57;9.93;;;;;;;5.19;100.00;97477.28;5100820;27;101843;-65
2022/01/26 11:26:41;;;;;;;12.10;9.40;;;;;;;5.37;100.00;97464.47;5095037;27;105243;-65
2022/01/26 11:29:24;;;;;;;11.43;8.97;;;;;;;5.45;100.00;97463.53;5097042;27;101909;-65
2022/01/26 11:32:05;;;;;;;10.57;7.87;;;;;;;5.60;100.00;97448.38;5097164;27;105352;-65
2022/01/26 11:34:34;;;;;;;9.87;8.10;;;;;;;5.69;100.00;97440.13;5096263;27;105315;-65
2022/01/26 11:37:08;;;;;;;11.40;7.73;;;;;;;5.49;100.00;97430.44;5112389;27;102429;-65
2022/01/26 11:46:07;;;;;;;8.33;7.37;;;;;;;4.92;100.00;97430.63;5101581;27;101736;-65
2022/01/26 11:49:00;;;;;;;9.30;7.07;;;;;;;5.20;100.00;97420.13;5120655;27;104776;-65
2022/01/26 11:51:38;;;;;;;10.17;6.93;;;;;;;5.25;100.00;97428.25;5108065;27;102152;-65
2022/01/26 11:54:13;;;;;;;8.20;7.00;;;;;;;5.51;100.00;97415.25;5096835;27;105140;-65
2022/01/26 11:56:40;;;;;;;9.60;7.03;;;;;;;5.90;100.00;97412.88;5114998;27;102544;-65
2022/01/26 11:59:21;;;;;;;8.43;7.00;;;;;;;6.33;100.00;97416.91;5096271;27;101900;-65
2022/01/26 12:01:57;;;;;;;8.57;6.53;;;;;;;6.49;100.00;97425.25;5108175;27;104473;-65
2022/01/26 12:04:25;;;;;;;7.17;6.30;;;;;;;6.98;100.00;97430.22;5116841;27;105436;-65
2022/01/26 12:06:59;;;;;;;11.03;7.17;;;;;;;6.99;100.00;97429.22;5104651;27;101947;-65
2022/01/26 12:09:48;;;;;;;8.87;6.90;;;;;;;6.93;100.00;97432.66;5099455;27;105353;-64
2022/01/26 12:12:18;;;;;;;8.53;6.47;;;;;;;7.19;100.00;97438.78;5096498;27;101865;-65
2022/01/26 12:14:46;;;;;;;9.33;7.17;;;;;;;6.99;100.00;97431.84;5096393;27;105603;-65
2022/01/26 12:17:24;;;;;;;8.47;6.93;;;;;;;6.91;100.00;97442.63;5095724;27;105175;-65
2022/01/26 12:20:11;;;;;;;12.13;6.83;;;;;;;6.58;100.00;97437.28;5096165;27;102282;-65
2022/01/26 12:34:29;;;;;;;8.50;7.57;;;;;;;6.66;100.00;97429.16;5098846;27;105229;-64
2022/01/26 12:37:05;;;;;;;8.70;7.43;;;;;;;7.27;100.00;97435.13;5107648;27;104731;-65
2022/01/26 12:43:05;;;;;;;8.87;7.97;;;;;;;8.16;100.00;97447.56;5102334;27;102519;-65
2022/01/26 12:45:34;;;;;;;10.30;8.10;;;;;;;8.55;100.00;97452.72;5096045;27;104744;-70
2022/01/26 12:48:10;;;;;;;9.67;8.60;;;;;;;8.95;100.00;97456.78;5095334;27;105248;-64
2022/01/26 12:50:40;;;;;;;13.80;9.87;;;;;;;7.21;100.00;97452.59;5095897;27;102115;-61
2022/01/26 12:53:08;;;;;;;13.47;10.63;;;;;;;7.31;100.00;97445.06;5096122;27;102839;-63
2022/01/26 12:55:37;;;;;;;12.77;10.67;;;;;;;8.01;100.00;97439.88;5094191;27;104040;-64
2022/01/26 13:01:29;;;;;;;9.57;8.00;;;;;;;7.99;100.00;97447.22;5099383;27;105377;-64
2022/01/26 13:03:59;;;;;;;8.30;7.33;;;;;;;7.60;100.00;97446.47;5116530;27;101898;-64
2022/01/26 13:06:28;;;;;;;8.00;7.00;;;;;;;8.31;100.00;97446.31;5116373;27;105903;-64
2022/01/26 13:09:17;;;;;;;9.80;7.70;;;;;;;8.24;100.00;97440.22;5095253;27;105773;-64
2022/01/26 13:11:46;;;;;;;7.77;6.97;;;;;;;8.59;100.00;97435.38;5113782;27;102205;-64
2022/01/26 13:14:15;;;;;;;9.70;7.13;;;;;;;7.79;100.00;97425.25;5095411;27;105729;-64
2022/01/26 13:16:58;;;;;;;8.63;6.93;;;;;;;8.34;100.00;97418.59;5111418;27;105851;-64
2022/01/26 13:19:45;;;;;;;8.50;7.13;;;;;;;8.13;100.00;97430.25;5116098;27;101902;-63
2022/01/26 13:25:11;;;;;;;8.93;6.20;;;;;;;8.46;100.00;97424.84;5116155;27;101969;-66
2022/01/26 13:28:08;;;;;;;9.37;7.30;;;;;;;8.91;100.00;97407.84;5114712;27;104903;-60
2022/01/26 13:31:02;;;;;;;7.17;6.43;;;;;;;9.50;100.00;97410.81;5094653;27;104990;-61
2022/01/26 13:36:28;;;;;;;7.77;6.57;;;;;;;9.95;100.00;97409.53;5098058;27;105563;-61
2022/01/26 13:39:37;;;;;;;8.70;7.07;;;;;;;10.19;100.00;97406.81;5129181;27;105724;-61
2022/01/26 13:42:31;;;;;;;7.60;6.80;;;;;;;9.39;100.00;97406.22;5129810;27;101880;-60
2022/01/26 13:50:30;;;;;;;12.27;9.07;;;;;;;9.71;100.00;97413.06;5115516;27;105222;-63
2022/01/26 13:53:03;;;;;;;9.97;8.97;;;;;;;10.33;100.00;97410.97;5133982;27;102623;-63